Palm Springs, CA (92262)

9:13 PM PDT on August 03, 2015 (GMT -0700)
PS Park San Rafael @ Naked Palms | | Change Station
CLOSE
Current Station
Personal Weather Station
Location: Palm Springs, CA
Elevation: 581 ft
Nearby Weather Stations
Active Advisory: Heat Advisory

Elev 581 ft 33.86 °N, 116.54 °W | Updated 3 minutes ago

Clear
Clear
93.2 °F
Feels Like 91 °F
N
9.4
Wind Variable Wind from NW

Today
High -- | Low -- °F
--% Chance of Precip.
Yesterday
High -- | Low -- °F
Precip. -- in
5:59 AM 7:45 PM
Waning Gibbous, 81% visible
Pressure 29.72 in
Visibility 10.0 miles
Clouds Clear
Heat Index 91 °F
Dew Point 53 °F
Humidity 26%
Rainfall 0.00 in
Snow Depth Not available.
UV 0 out of 12
Pollen 4.60 out of 12
Air Quality Not available.
Flu Activity Not available.
METAR KPSP 040353Z 31016G25KT 10SM CLR 37/11 A2973 RMK AO2 SLP063 T03670111

More Conditions Fewer Conditions

Pressure 29.72 in
Visibility 10.0 miles
Clouds Clear
Heat Index 91 °F
Dew Point 53 °F
Humidity 26%
Rainfall 0.00 in
Snow Depth Not available.
UV 0 out of 12
Pollen 4.60 out of 12
Air Quality Not available.
Flu Activity Not available.
METAR KPSP 040353Z 31016G25KT 10SM CLR 37/11 A2973 RMK AO2 SLP063 T03670111

More Conditions Fewer Conditions

10-Day Weather Forecast

×

Almanac

Astronomy

Aug. 03, 2015 Rise Set
Actual Time
Civil Twilight
Nautical Twilight
Astronomical Twilight
Moon
Length of Visible Light
Length of Day
Tomorrow will be .
, % of the Moon is Illuminated

Today's Extremes

State Highs State Lows

Community

WunderPhotos

Upload Photos

1,843,853 photos uploaded!

WunderBlogs® & News

Nearby

Air Quality

  Air Quality AQ Index Pollutant
Not available.

Snow Depth

Station Depth Elevation

Earthquake Activity

City Distance Mag. Time & Date
Minimum magnitude displayed is 2.5.

Coastal Water Temperatures

Place Temperature

Stations

Nearby Weather Stations

Station Location Temp. Windchill Dew Point Humidity Wind Precip. Elev Updated Type
                   
Heat Advisory
Statement as of 1:18 PM PDT on August 03, 2015

... Heat advisory remains in effect from noon Tuesday to 6 PM PDT
Wednesday...

* location... portions of the Coachella Valley.

* High temperatures... 112 to 115 degrees.

* Impacts... risk of heat related illness.

* Outlook... cooling for Thursday through Saturday.

Precautionary/preparedness actions...

Take extra precautions if you work or spend time outside. When
possible... reschedule strenuous activities to early morning or
evening. Know the signs and symptoms of heat exhaustion and heat
stroke. Wear light weight and loose fitting clothing when
possible and drink plenty of water.

To reduce risk during outdoor work the occupational safety and
health administration recommends scheduling frequent rest breaks
in shaded or air conditioned environments. Anyone overcome by
heat should be moved to a cool and shaded location. Heat stroke
is an emergency - call 911.



Mm